sensor_id;sensor_type;location;lat;lon;timestamp;pressure;altitude;pressure_sealevel;temperature;humidity
64053;BME280;50299;49.524;8.536;2023-04-30T00:00:24;100910.84;;;11.31;56.43
64053;BME280;50299;49.524;8.536;2023-04-30T00:02:51;100914.19;;;11.02;54.94
64053;BME280;50299;49.524;8.536;2023-04-30T00:05:18;100915.84;;;11.03;58.50
64053;BME280;50299;49.524;8.536;2023-04-30T00:07:45;100916.81;;;10.98;54.88
64053;BME280;50299;49.524;8.536;2023-04-30T00:10:11;100913.41;;;10.70;55.59
64053;BME280;50299;49.524;8.536;2023-04-30T00:12:38;100922.47;;;10.62;58.94
64053;BME280;50299;49.524;8.536;2023-04-30T00:15:05;100917.00;;;10.71;64.94
64053;BME280;50299;49.524;8.536;2023-04-30T00:17:32;100920.78;;;10.75;56.08
64053;BME280;50299;49.524;8.536;2023-04-30T00:19:58;100928.31;;;10.92;61.78
64053;BME280;50299;49.524;8.536;2023-04-30T00:22:25;100928.88;;;11.11;66.04
64053;BME280;50299;49.524;8.536;2023-04-30T00:24:51;100927.75;;;11.12;56.93
64053;BME280;50299;49.524;8.536;2023-04-30T00:27:22;100928.31;;;10.92;54.34
64053;BME280;50299;49.524;8.536;2023-04-30T00:29:49;100932.34;;;10.85;56.63
64053;BME280;50299;49.524;8.536;2023-04-30T00:32:15;100943.72;;;10.75;57.42
64053;BME280;50299;49.524;8.536;2023-04-30T00:34:42;100938.50;;;10.51;56.34
64053;BME280;50299;49.524;8.536;2023-04-30T00:37:08;100935.59;;;10.56;56.30
64053;BME280;50299;49.524;8.536;2023-04-30T00:39:35;100934.50;;;10.57;59.20
64053;BME280;50299;49.524;8.536;2023-04-30T00:42:01;100938.88;;;10.58;56.53
64053;BME280;50299;49.524;8.536;2023-04-30T00:44:28;100926.09;;;10.40;56.25
64053;BME280;50299;49.524;8.536;2023-04-30T00:46:54;100936.78;;;10.10;55.52
64053;BME280;50299;49.524;8.536;2023-04-30T00:49:21;100923.59;;;10.07;57.10
64053;BME280;50299;49.524;8.536;2023-04-30T00:51:48;100915.44;;;10.02;58.25
64053;BME280;50299;49.524;8.536;2023-04-30T00:54:15;100923.13;;;9.83;56.88
64053;BME280;50299;49.524;8.536;2023-04-30T00:56:42;100928.28;;;9.48;57.85
64053;BME280;50299;49.524;8.536;2023-04-30T00:59:12;100926.41;;;9.71;59.99
64053;BME280;50299;49.524;8.536;2023-04-30T01:01:38;100922.50;;;10.08;68.74
64053;BME280;50299;49.524;8.536;2023-04-30T01:04:10;100925.84;;;10.28;61.11
64053;BME280;50299;49.524;8.536;2023-04-30T01:06:37;100929.00;;;10.35;61.37
64053;BME280;50299;49.524;8.536;2023-04-30T01:09:13;100934.03;;;10.33;66.30
64053;BME280;50299;49.524;8.536;2023-04-30T01:11:59;100924.94;;;10.32;63.17
64053;BME280;50299;49.524;8.536;2023-04-30T01:14:41;100933.66;;;10.26;57.41
64053;BME280;50299;49.524;8.536;2023-04-30T01:17:33;100929.13;;;10.30;62.27
64053;BME280;50299;49.524;8.536;2023-04-30T01:20:03;100932.56;;;10.35;55.82
64053;BME280;50299;49.524;8.536;2023-04-30T01:22:45;100931.09;;;10.29;56.95
64053;BME280;50299;49.524;8.536;2023-04-30T01:28:15;100928.19;;;10.34;55.29
64053;BME280;50299;49.524;8.536;2023-04-30T01:30:42;100928.03;;;10.08;58.87
64053;BME280;50299;49.524;8.536;2023-04-30T01:33:10;100929.75;;;10.27;65.13
64053;BME280;50299;49.524;8.536;2023-04-30T01:41:12;100920.97;;;9.30;57.69
64053;BME280;50299;49.524;8.536;2023-04-30T01:43:50;100919.84;;;9.31;57.29
64053;BME280;50299;49.524;8.536;2023-04-30T01:46:27;100927.91;;;9.27;58.61
64053;BME280;50299;49.524;8.536;2023-04-30T01:49:07;100924.75;;;9.34;57.27
64053;BME280;50299;49.524;8.536;2023-04-30T01:51:41;100922.75;;;8.98;58.07
64053;BME280;50299;49.524;8.536;2023-04-30T01:54:33;100922.03;;;9.06;58.58
64053;BME280;50299;49.524;8.536;2023-04-30T01:57:12;100920.19;;;8.88;59.15
64053;BME280;50299;49.524;8.536;2023-04-30T01:59:42;100924.66;;;9.11;58.87
64053;BME280;50299;49.524;8.536;2023-04-30T02:02:08;100928.13;;;9.31;58.57
64053;BME280;50299;49.524;8.536;2023-04-30T02:04:35;100921.56;;;9.41;58.92
64053;BME280;50299;49.524;8.536;2023-04-30T02:07:02;100932.88;;;9.53;57.03
64053;BME280;50299;49.524;8.536;2023-04-30T02:09:28;100926.06;;;9.50;57.81
64053;BME280;50299;49.524;8.536;2023-04-30T02:11:55;100932.19;;;9.33;57.83
64053;BME280;50299;49.524;8.536;2023-04-30T02:14:23;100923.72;;;9.44;56.88
64053;BME280;50299;49.524;8.536;2023-04-30T02:16:49;100926.66;;;9.47;57.33
64053;BME280;50299;49.524;8.536;2023-04-30T02:19:16;100929.69;;;9.59;59.29
64053;BME280;50299;49.524;8.536;2023-04-30T02:21:43;100928.25;;;9.76;58.89
64053;BME280;50299;49.524;8.536;2023-04-30T02:24:09;100930.47;;;9.88;58.27
64053;BME280;50299;49.524;8.536;2023-04-30T02:26:41;100931.69;;;9.81;56.95
64053;BME280;50299;49.524;8.536;2023-04-30T02:29:09;100926.78;;;9.78;56.65
64053;BME280;50299;49.524;8.536;2023-04-30T02:31:35;100923.59;;;9.49;61.19
64053;BME280;50299;49.524;8.536;2023-04-30T02:34:02;100928.38;;;9.57;59.37
64053;BME280;50299;49.524;8.536;2023-04-30T02:36:30;100928.38;;;9.57;63.87
64053;BME280;50299;49.524;8.536;2023-04-30T02:39:11;100925.50;;;9.76;60.93
64053;BME280;50299;49.524;8.536;2023-04-30T02:41:47;100924.66;;;9.61;57.37
64053;BME280;50299;49.524;8.536;2023-04-30T02:44:17;100916.97;;;9.72;61.73
64053;BME280;50299;49.524;8.536;2023-04-30T02:46:49;100923.94;;;9.83;62.32
64053;BME280;50299;49.524;8.536;2023-04-30T02:49:26;100920.47;;;9.64;56.82
64053;BME280;50299;49.524;8.536;2023-04-30T02:51:53;100918.34;;;9.61;61.12
64053;BME280;50299;49.524;8.536;2023-04-30T02:54:19;100920.97;;;9.80;65.24
64053;BME280;50299;49.524;8.536;2023-04-30T02:56:46;100923.22;;;9.78;56.19
64053;BME280;50299;49.524;8.536;2023-04-30T02:59:12;100925.78;;;9.74;60.71
64053;BME280;50299;49.524;8.536;2023-04-30T03:01:46;100930.53;;;9.96;60.58
64053;BME280;50299;49.524;8.536;2023-04-30T03:04:13;100927.38;;;9.89;58.64
64053;BME280;50299;49.524;8.536;2023-04-30T03:06:45;100933.41;;;9.91;62.51
64053;BME280;50299;49.524;8.536;2023-04-30T03:09:12;100935.34;;;9.91;56.75
64053;BME280;50299;49.524;8.536;2023-04-30T03:11:40;100934.22;;;9.92;57.28
64053;BME280;50299;49.524;8.536;2023-04-30T03:14:07;100932.09;;;9.89;57.24
64053;BME280;50299;49.524;8.536;2023-04-30T03:16:34;100934.66;;;9.85;55.88
64053;BME280;50299;49.524;8.536;2023-04-30T03:19:01;100934.59;;;9.99;65.29
64053;BME280;50299;49.524;8.536;2023-04-30T03:21:29;100927.13;;;9.77;58.11
64053;BME280;50299;49.524;8.536;2023-04-30T03:23:56;100925.41;;;9.53;58.78
64053;BME280;50299;49.524;8.536;2023-04-30T03:26:23;100925.66;;;9.43;60.98
64053;BME280;50299;49.524;8.536;2023-04-30T03:28:49;100927.13;;;9.63;67.08
64053;BME280;50299;49.524;8.536;2023-04-30T03:31:16;100925.25;;;9.86;59.58
64053;BME280;50299;49.524;8.536;2023-04-30T03:33:45;100924.75;;;9.70;58.54
64053;BME280;50299;49.524;8.536;2023-04-30T03:36:11;100916.91;;;9.63;56.65
64053;BME280;50299;49.524;8.536;2023-04-30T03:38:41;100922.84;;;9.57;58.31
64053;BME280;50299;49.524;8.536;2023-04-30T03:41:08;100925.69;;;9.66;56.10
64053;BME280;50299;49.524;8.536;2023-04-30T03:43:37;100928.38;;;9.93;65.69
64053;BME280;50299;49.524;8.536;2023-04-30T03:46:06;100925.06;;;10.05;60.75
64053;BME280;50299;49.524;8.536;2023-04-30T03:48:39;100916.66;;;10.10;62.42
64053;BME280;50299;49.524;8.536;2023-04-30T03:51:08;100927.19;;;9.85;56.13
64053;BME280;50299;49.524;8.536;2023-04-30T03:53:35;100926.19;;;9.68;56.37
64053;BME280;50299;49.524;8.536;2023-04-30T03:56:04;100930.34;;;9.43;63.01
64053;BME280;50299;49.524;8.536;2023-04-30T03:58:31;100934.06;;;9.10;57.61
64053;BME280;50299;49.524;8.536;2023-04-30T04:01:05;100924.69;;;8.98;61.64
64053;BME280;50299;49.524;8.536;2023-04-30T04:14:25;100927.44;;;9.11;67.77
64053;BME280;50299;49.524;8.536;2023-04-30T04:16:54;100929.78;;;8.77;59.65
64053;BME280;50299;49.524;8.536;2023-04-30T04:19:23;100931.41;;;8.78;61.11
64053;BME280;50299;49.524;8.536;2023-04-30T04:21:57;100934.88;;;8.83;59.09
64053;BME280;50299;49.524;8.536;2023-04-30T04:24:27;100928.66;;;8.92;58.83
64053;BME280;50299;49.524;8.536;2023-04-30T04:26:54;100936.25;;;8.53;59.06
64053;BME280;50299;49.524;8.536;2023-04-30T04:29:21;100929.50;;;8.46;60.36
64053;BME280;50299;49.524;8.536;2023-04-30T04:31:56;100930.63;;;8.58;59.49
64053;BME280;50299;49.524;8.536;2023-04-30T04:34:23;100935.81;;;8.46;59.69
64053;BME280;50299;49.524;8.536;2023-04-30T04:36:57;100940.53;;;8.46;59.38
64053;BME280;50299;49.524;8.536;2023-04-30T04:39:34;100946.56;;;8.48;60.34
64053;BME280;50299;49.524;8.536;2023-04-30T04:42:12;100952.41;;;8.60;63.07
64053;BME280;50299;49.524;8.536;2023-04-30T04:44:50;100948.44;;;8.66;60.21
64053;BME280;50299;49.524;8.536;2023-04-30T04:47:17;100947.25;;;8.72;59.35
64053;BME280;50299;49.524;8.536;2023-04-30T04:49:48;100937.44;;;8.80;60.46
64053;BME280;50299;49.524;8.536;2023-04-30T04:52:15;100943.97;;;9.11;63.90
64053;BME280;50299;49.524;8.536;2023-04-30T04:54:43;100947.34;;;9.22;58.09
64053;BME280;50299;49.524;8.536;2023-04-30T04:57:10;100944.38;;;8.77;59.77
64053;BME280;50299;49.524;8.536;2023-04-30T04:59:37;100943.16;;;9.11;63.54
64053;BME280;50299;49.524;8.536;2023-04-30T05:02:07;100936.94;;;9.19;60.55
64053;BME280;50299;49.524;8.536;2023-04-30T05:04:35;100934.41;;;9.45;68.44
64053;BME280;50299;49.524;8.536;2023-04-30T05:07:07;100940.22;;;9.21;59.36
64053;BME280;50299;49.524;8.536;2023-04-30T05:09:33;100943.06;;;9.02;63.26
64053;BME280;50299;49.524;8.536;2023-04-30T05:12:09;100947.94;;;9.33;63.20
64053;BME280;50299;49.524;8.536;2023-04-30T05:14:39;100946.13;;;9.65;60.43
64053;BME280;50299;49.524;8.536;2023-04-30T05:17:05;100941.75;;;9.63;56.33
64053;BME280;50299;49.524;8.536;2023-04-30T05:19:32;100946.84;;;9.84;59.13
64053;BME280;50299;49.524;8.536;2023-04-30T05:21:59;100946.13;;;9.78;60.76
64053;BME280;50299;49.524;8.536;2023-04-30T05:24:29;100942.94;;;9.85;60.48
64053;BME280;50299;49.524;8.536;2023-04-30T05:26:59;100945.13;;;9.74;62.02
64053;BME280;50299;49.524;8.536;2023-04-30T05:29:25;100953.69;;;10.09;63.77
64053;BME280;50299;49.524;8.536;2023-04-30T05:31:52;100951.66;;;10.23;57.23
64053;BME280;50299;49.524;8.536;2023-04-30T05:34:19;100952.28;;;9.75;56.65
64053;BME280;50299;49.524;8.536;2023-04-30T05:36:46;100956.88;;;9.80;64.74
64053;BME280;50299;49.524;8.536;2023-04-30T05:39:20;100964.56;;;10.05;60.82
64053;BME280;50299;49.524;8.536;2023-04-30T05:41:46;100950.94;;;9.73;60.64
64053;BME280;50299;49.524;8.536;2023-04-30T05:44:14;100955.59;;;10.00;61.22
64053;BME280;50299;49.524;8.536;2023-04-30T05:46:40;100955.44;;;10.27;64.32
64053;BME280;50299;49.524;8.536;2023-04-30T05:49:08;100954.91;;;10.48;61.48
64053;BME280;50299;49.524;8.536;2023-04-30T05:51:34;100955.13;;;10.29;57.61
64053;BME280;50299;49.524;8.536;2023-04-30T05:54:00;100956.91;;;10.25;60.22
64053;BME280;50299;49.524;8.536;2023-04-30T05:56:27;100950.81;;;10.36;57.65
64053;BME280;50299;49.524;8.536;2023-04-30T05:58:53;100950.69;;;9.97;55.46
64053;BME280;50299;49.524;8.536;2023-04-30T06:01:20;100950.28;;;9.90;61.45
64053;BME280;50299;49.524;8.536;2023-04-30T06:03:47;100957.81;;;9.75;60.08
64053;BME280;50299;49.524;8.536;2023-04-30T06:06:14;100952.69;;;10.05;62.35
64053;BME280;50299;49.524;8.536;2023-04-30T06:08:40;100947.03;;;9.88;55.93
64053;BME280;50299;49.524;8.536;2023-04-30T06:11:10;100956.69;;;9.99;64.09
64053;BME280;50299;49.524;8.536;2023-04-30T06:13:38;100941.03;;;9.58;60.40
64053;BME280;50299;49.524;8.536;2023-04-30T06:16:06;100953.31;;;10.02;60.76
64053;BME280;50299;49.524;8.536;2023-04-30T06:18:33;100956.75;;;10.30;59.15
64053;BME280;50299;49.524;8.536;2023-04-30T06:20:59;100954.91;;;10.17;62.40
64053;BME280;50299;49.524;8.536;2023-04-30T06:23:25;100943.59;;;10.58;59.54
64053;BME280;50299;49.524;8.536;2023-04-30T06:25:52;100952.09;;;10.61;63.59
64053;BME280;50299;49.524;8.536;2023-04-30T06:28:18;100948.84;;;10.15;65.39
64053;BME280;50299;49.524;8.536;2023-04-30T06:30:45;100945.91;;;10.33;61.83
64053;BME280;50299;49.524;8.536;2023-04-30T06:33:11;100951.84;;;10.49;60.57
64053;BME280;50299;49.524;8.536;2023-04-30T06:35:38;100953.91;;;10.66;58.31
64053;BME280;50299;49.524;8.536;2023-04-30T06:38:05;100964.00;;;10.71;59.90
64053;BME280;50299;49.524;8.536;2023-04-30T06:40:32;100959.97;;;10.77;61.80
64053;BME280;50299;49.524;8.536;2023-04-30T06:42:58;100962.66;;;10.68;57.89
64053;BME280;50299;49.524;8.536;2023-04-30T06:45:24;100957.31;;;10.72;60.50
64053;BME280;50299;49.524;8.536;2023-04-30T06:47:52;100947.13;;;10.50;57.92
64053;BME280;50299;49.524;8.536;2023-04-30T06:50:19;100958.22;;;10.81;61.00
64053;BME280;50299;49.524;8.536;2023-04-30T06:52:46;100961.19;;;10.62;54.42
64053;BME280;50299;49.524;8.536;2023-04-30T06:55:13;100962.66;;;10.91;61.92
64053;BME280;50299;49.524;8.536;2023-04-30T06:57:39;100960.22;;;10.98;56.00
64053;BME280;50299;49.524;8.536;2023-04-30T07:00:07;100968.13;;;11.22;61.26
64053;BME280;50299;49.524;8.536;2023-04-30T07:02:35;100973.56;;;11.44;60.56
64053;BME280;50299;49.524;8.536;2023-04-30T07:05:02;100962.69;;;11.48;59.68
64053;BME280;50299;49.524;8.536;2023-04-30T07:07:28;100964.47;;;11.44;60.96
64053;BME280;50299;49.524;8.536;2023-04-30T07:09:55;100961.50;;;11.31;53.80
64053;BME280;50299;49.524;8.536;2023-04-30T07:12:22;100960.91;;;10.72;52.61
64053;BME280;50299;49.524;8.536;2023-04-30T07:14:48;100952.56;;;10.64;60.37
64053;BME280;50299;49.524;8.536;2023-04-30T07:17:15;100962.50;;;10.96;57.89
64053;BME280;50299;49.524;8.536;2023-04-30T07:19:45;100966.25;;;10.91;59.05
64053;BME280;50299;49.524;8.536;2023-04-30T07:22:14;100958.66;;;11.14;61.03
64053;BME280;50299;49.524;8.536;2023-04-30T07:24:49;100970.19;;;11.56;60.30
64053;BME280;50299;49.524;8.536;2023-04-30T07:27:15;100956.84;;;11.84;59.54
64053;BME280;50299;49.524;8.536;2023-04-30T07:29:42;100957.78;;;11.45;56.91
64053;BME280;50299;49.524;8.536;2023-04-30T07:32:10;100961.56;;;11.66;61.69
64053;BME280;50299;49.524;8.536;2023-04-30T07:34:39;100960.28;;;11.72;53.49
64053;BME280;50299;49.524;8.536;2023-04-30T07:37:12;100957.78;;;11.62;64.27
64053;BME280;50299;49.524;8.536;2023-04-30T07:39:41;100964.47;;;11.44;50.02
64053;BME280;50299;49.524;8.536;2023-04-30T07:42:08;100959.31;;;11.77;53.58
64053;BME280;50299;49.524;8.536;2023-04-30T07:44:37;100952.28;;;11.97;56.35
64053;BME280;50299;49.524;8.536;2023-04-30T07:47:04;100947.34;;;12.46;58.89
64053;BME280;50299;49.524;8.536;2023-04-30T07:49:34;100942.00;;;12.32;53.02
64053;BME280;50299;49.524;8.536;2023-04-30T07:52:00;100955.41;;;11.87;53.78
64053;BME280;50299;49.524;8.536;2023-04-30T07:54:30;100950.31;;;12.32;55.97
64053;BME280;50299;49.524;8.536;2023-04-30T07:57:01;100956.56;;;11.86;55.54
64053;BME280;50299;49.524;8.536;2023-04-30T07:59:28;100952.47;;;12.18;55.79
64053;BME280;50299;49.524;8.536;2023-04-30T08:02:00;100945.63;;;11.80;57.77
64053;BME280;50299;49.524;8.536;2023-04-30T08:04:35;100963.13;;;12.54;55.75
64053;BME280;50299;49.524;8.536;2023-04-30T08:07:07;100968.19;;;12.69;50.23
64053;BME280;50299;49.524;8.536;2023-04-30T08:09:38;100963.69;;;12.21;54.36
64053;BME280;50299;49.524;8.536;2023-04-30T08:12:07;100957.00;;;12.05;53.63
64053;BME280;50299;49.524;8.536;2023-04-30T08:17:23;100963.66;;;13.03;58.10
64053;BME280;50299;49.524;8.536;2023-04-30T08:19:56;100974.81;;;13.24;54.19
64053;BME280;50299;49.524;8.536;2023-04-30T08:22:23;100956.03;;;13.29;54.84
64053;BME280;50299;49.524;8.536;2023-04-30T08:25:01;100958.09;;;13.32;46.62
64053;BME280;50299;49.524;8.536;2023-04-30T08:27:30;100955.88;;;13.55;55.68
64053;BME280;50299;49.524;8.536;2023-04-30T08:29:57;100950.41;;;13.89;51.30
64053;BME280;50299;49.524;8.536;2023-04-30T08:32:23;100953.03;;;13.85;45.97
64053;BME280;50299;49.524;8.536;2023-04-30T08:34:53;100954.66;;;13.65;43.05
64053;BME280;50299;49.524;8.536;2023-04-30T08:37:21;100955.75;;;13.73;51.28
64053;BME280;50299;49.524;8.536;2023-04-30T08:39:48;100949.38;;;13.22;49.21
64053;BME280;50299;49.524;8.536;2023-04-30T08:42:24;100952.84;;;12.72;45.73
64053;BME280;50299;49.524;8.536;2023-04-30T08:44:59;100952.09;;;12.28;43.91
64053;BME280;50299;49.524;8.536;2023-04-30T08:47:30;100941.06;;;12.11;56.60
64053;BME280;50299;49.524;8.536;2023-04-30T08:50:04;100949.97;;;12.33;52.29
64053;BME280;50299;49.524;8.536;2023-04-30T08:52:33;100953.25;;;12.36;47.75
64053;BME280;50299;49.524;8.536;2023-04-30T08:55:08;100953.19;;;12.62;51.46
64053;BME280;50299;49.524;8.536;2023-04-30T08:57:36;100944.75;;;12.96;52.54
64053;BME280;50299;49.524;8.536;2023-04-30T09:00:08;100950.03;;;12.80;54.92
64053;BME280;50299;49.524;8.536;2023-04-30T09:02:39;100952.75;;;13.27;54.31
64053;BME280;50299;49.524;8.536;2023-04-30T09:05:14;100954.00;;;13.39;44.03
64053;BME280;50299;49.524;8.536;2023-04-30T09:07:46;100948.34;;;13.56;48.77
64053;BME280;50299;49.524;8.536;2023-04-30T09:10:31;100954.25;;;13.75;51.00
64053;BME280;50299;49.524;8.536;2023-04-30T09:13:06;100957.03;;;13.75;50.13
64053;BME280;50299;49.524;8.536;2023-04-30T09:15:58;100951.50;;;13.46;48.97
64053;BME280;50299;49.524;8.536;2023-04-30T09:18:27;100957.25;;;13.70;53.76
64053;BME280;50299;49.524;8.536;2023-04-30T09:21:04;100947.75;;;13.92;54.60
64053;BME280;50299;49.524;8.536;2023-04-30T09:23:36;100950.53;;;13.71;48.82
64053;BME280;50299;49.524;8.536;2023-04-30T09:26:19;100949.31;;;13.81;42.52
64053;BME280;50299;49.524;8.536;2023-04-30T09:28:56;100937.66;;;13.16;42.87
64053;BME280;50299;49.524;8.536;2023-04-30T09:31:23;100948.44;;;13.68;46.21
64053;BME280;50299;49.524;8.536;2023-04-30T09:33:52;100946.72;;;13.55;39.62
64053;BME280;50299;49.524;8.536;2023-04-30T09:36:19;100932.50;;;13.27;49.54
64053;BME280;50299;49.524;8.536;2023-04-30T09:38:46;100950.47;;;13.00;42.37
64053;BME280;50299;49.524;8.536;2023-04-30T09:41:27;100944.53;;;12.72;47.88
64053;BME280;50299;49.524;8.536;2023-04-30T09:44:00;100943.16;;;13.25;52.40
64053;BME280;50299;49.524;8.536;2023-04-30T09:46:31;100939.25;;;13.17;47.85
64053;BME280;50299;49.524;8.536;2023-04-30T09:49:04;100941.72;;;13.40;47.22
64053;BME280;50299;49.524;8.536;2023-04-30T09:51:31;100927.56;;;13.83;47.34
64053;BME280;50299;49.524;8.536;2023-04-30T09:54:02;100943.50;;;13.44;47.44
64053;BME280;50299;49.524;8.536;2023-04-30T09:56:32;100946.22;;;13.62;43.61
64053;BME280;50299;49.524;8.536;2023-04-30T09:59:17;100932.25;;;13.70;44.30
64053;BME280;50299;49.524;8.536;2023-04-30T10:01:46;100937.94;;;13.95;49.32
64053;BME280;50299;49.524;8.536;2023-04-30T10:04:16;100932.88;;;14.09;49.73
64053;BME280;50299;49.524;8.536;2023-04-30T10:07:00;100934.16;;;14.33;51.24
64053;BME280;50299;49.524;8.536;2023-04-30T10:09:58;100931.38;;;14.33;49.15
64053;BME280;50299;49.524;8.536;2023-04-30T10:12:35;100931.88;;;13.93;48.40
64053;BME280;50299;49.524;8.536;2023-04-30T10:15:22;100933.31;;;13.57;49.67
64053;BME280;50299;49.524;8.536;2023-04-30T10:18:04;100928.50;;;13.37;45.27
64053;BME280;50299;49.524;8.536;2023-04-30T10:20:34;100934.31;;;13.52;51.77
64053;BME280;50299;49.524;8.536;2023-04-30T10:23:07;100930.41;;;13.74;42.33
64053;BME280;50299;49.524;8.536;2023-04-30T10:25:44;100916.84;;;13.22;47.07
64053;BME280;50299;49.524;8.536;2023-04-30T10:31:09;100920.56;;;13.98;49.44
64053;BME280;50299;49.524;8.536;2023-04-30T10:33:47;100912.09;;;13.73;44.84
64053;BME280;50299;49.524;8.536;2023-04-30T10:36:46;100912.66;;;13.88;48.56
64053;BME280;50299;49.524;8.536;2023-04-30T10:39:27;100902.09;;;14.14;49.78
64053;BME280;50299;49.524;8.536;2023-04-30T10:42:02;100910.66;;;14.42;43.40
64053;BME280;50299;49.524;8.536;2023-04-30T10:44:35;100903.63;;;14.24;48.29
64053;BME280;50299;49.524;8.536;2023-04-30T10:47:10;100901.13;;;14.10;46.66
64053;BME280;50299;49.524;8.536;2023-04-30T10:49:48;100905.34;;;14.16;44.24
64053;BME280;50299;49.524;8.536;2023-04-30T10:52:25;100898.53;;;14.26;39.46
64053;BME280;50299;49.524;8.536;2023-04-30T10:54:52;100896.31;;;14.19;41.57
64053;BME280;50299;49.524;8.536;2023-04-30T10:57:43;100892.44;;;14.33;48.17
64053;BME280;50299;49.524;8.536;2023-04-30T11:00:18;100890.69;;;13.95;39.90
64053;BME280;50299;49.524;8.536;2023-04-30T11:02:55;100897.84;;;14.29;49.69
64053;BME280;50299;49.524;8.536;2023-04-30T11:05:36;100891.72;;;14.23;40.93
64053;BME280;50299;49.524;8.536;2023-04-30T11:08:10;100895.72;;;14.14;42.13
64053;BME280;50299;49.524;8.536;2023-04-30T11:10:55;100891.78;;;14.36;47.84
64053;BME280;50299;49.524;8.536;2023-04-30T11:13:34;100885.31;;;14.23;44.54
64053;BME280;50299;49.524;8.536;2023-04-30T11:16:04;100875.25;;;14.30;44.47
64053;BME280;50299;49.524;8.536;2023-04-30T11:18:31;100871.03;;;14.58;50.99
64053;BME280;50299;49.524;8.536;2023-04-30T11:21:00;100878.94;;;14.92;51.32
64053;BME280;50299;49.524;8.536;2023-04-30T11:23:28;100878.81;;;15.25;44.51
64053;BME280;50299;49.524;8.536;2023-04-30T11:26:07;100883.53;;;15.37;51.72
64053;BME280;50299;49.524;8.536;2023-04-30T11:28:37;100883.94;;;15.23;47.57
64053;BME280;50299;49.524;8.536;2023-04-30T11:31:09;100875.47;;;15.60;45.23
64053;BME280;50299;49.524;8.536;2023-04-30T11:33:43;100870.75;;;16.17;48.61
64053;BME280;50299;49.524;8.536;2023-04-30T11:36:12;100869.94;;;15.48;38.09
64053;BME280;50299;49.524;8.536;2023-04-30T11:38:42;100868.16;;;15.96;43.09
64053;BME280;50299;49.524;8.536;2023-04-30T11:41:12;100866.13;;;16.09;47.89
64053;BME280;50299;49.524;8.536;2023-04-30T11:43:48;100864.97;;;16.10;37.31
64053;BME280;50299;49.524;8.536;2023-04-30T11:46:17;100871.47;;;16.30;45.74
64053;BME280;50299;49.524;8.536;2023-04-30T11:48:56;100858.56;;;16.09;43.22
64053;BME280;50299;49.524;8.536;2023-04-30T11:51:53;100856.97;;;16.56;46.43
64053;BME280;50299;49.524;8.536;2023-04-30T11:54:22;100853.00;;;16.41;44.02
64053;BME280;50299;49.524;8.536;2023-04-30T11:56:48;100840.25;;;16.87;45.14
64053;BME280;50299;49.524;8.536;2023-04-30T11:59:18;100854.53;;;17.37;47.52
64053;BME280;50299;49.524;8.536;2023-04-30T12:01:45;100853.81;;;17.59;47.64
64053;BME280;50299;49.524;8.536;2023-04-30T12:04:12;100848.69;;;17.61;45.94
64053;BME280;50299;49.524;8.536;2023-04-30T12:06:47;100841.41;;;17.57;44.49
64053;BME280;50299;49.524;8.536;2023-04-30T12:09:16;100843.94;;;18.04;48.84
64053;BME280;50299;49.524;8.536;2023-04-30T12:11:46;100848.72;;;16.91;34.35
64053;BME280;50299;49.524;8.536;2023-04-30T12:14:13;100844.84;;;17.50;41.74
64053;BME280;50299;49.524;8.536;2023-04-30T12:16:50;100829.63;;;17.67;34.81
64053;BME280;50299;49.524;8.536;2023-04-30T12:19:23;100827.59;;;18.06;37.88
64053;BME280;50299;49.524;8.536;2023-04-30T12:21:51;100823.72;;;17.72;39.71
64053;BME280;50299;49.524;8.536;2023-04-30T12:24:20;100829.81;;;17.97;48.00
64053;BME280;50299;49.524;8.536;2023-04-30T12:26:55;100826.44;;;17.88;42.35
64053;BME280;50299;49.524;8.536;2023-04-30T12:29:25;100830.00;;;17.65;40.37
64053;BME280;50299;49.524;8.536;2023-04-30T12:31:54;100825.00;;;17.74;40.40
64053;BME280;50299;49.524;8.536;2023-04-30T12:34:28;100823.72;;;17.91;40.36
64053;BME280;50299;49.524;8.536;2023-04-30T12:37:01;100821.56;;;18.04;43.23
64053;BME280;50299;49.524;8.536;2023-04-30T12:39:34;100812.50;;;18.34;48.94
64053;BME280;50299;49.524;8.536;2023-04-30T12:42:02;100814.56;;;18.37;35.21
64053;BME280;50299;49.524;8.536;2023-04-30T12:44:29;100813.88;;;18.43;43.93
64053;BME280;50299;49.524;8.536;2023-04-30T12:46:57;100807.09;;;18.21;42.72
64053;BME280;50299;49.524;8.536;2023-04-30T12:49:28;100807.91;;;17.80;41.72
64053;BME280;50299;49.524;8.536;2023-04-30T12:52:03;100805.88;;;17.57;42.70
64053;BME280;50299;49.524;8.536;2023-04-30T12:54:30;100801.97;;;17.62;36.93
64053;BME280;50299;49.524;8.536;2023-04-30T12:57:03;100799.41;;;17.53;34.94
64053;BME280;50299;49.524;8.536;2023-04-30T12:59:38;100799.44;;;17.37;41.72
64053;BME280;50299;49.524;8.536;2023-04-30T13:02:09;100797.31;;;17.31;43.70
64053;BME280;50299;49.524;8.536;2023-04-30T13:04:54;100790.41;;;17.24;40.40
64053;BME280;50299;49.524;8.536;2023-04-30T13:07:39;100793.16;;;16.70;39.60
64053;BME280;50299;49.524;8.536;2023-04-30T13:10:09;100777.97;;;16.67;36.35
64053;BME280;50299;49.524;8.536;2023-04-30T13:12:40;100793.69;;;16.75;46.12
64053;BME280;50299;49.524;8.536;2023-04-30T13:15:10;100778.13;;;16.59;42.00
64053;BME280;50299;49.524;8.536;2023-04-30T13:17:37;100785.34;;;16.44;36.32
64053;BME280;50299;49.524;8.536;2023-04-30T13:20:06;100769.06;;;16.30;39.91
64053;BME280;50299;49.524;8.536;2023-04-30T13:22:33;100765.91;;;16.16;46.29
64053;BME280;50299;49.524;8.536;2023-04-30T13:25:00;100765.91;;;16.32;47.39
64053;BME280;50299;49.524;8.536;2023-04-30T13:27:26;100762.88;;;16.21;42.30
64053;BME280;50299;49.524;8.536;2023-04-30T13:29:55;100765.63;;;16.37;45.86
64053;BME280;50299;49.524;8.536;2023-04-30T13:32:22;100762.72;;;16.49;40.38
64053;BME280;50299;49.524;8.536;2023-04-30T13:34:49;100750.25;;;16.27;35.68